Russell, North Dakota
Current Conditions -  °F | °C
As of 8:28 PM on Saturday 20 Dec 2014 (Local Time) from KMIB Reporting Station
Overcast Overcast  
Wind Chill: 22°   Ceiling: 2800
Heat Index: 28°   Visibility: 10mi
Dew Point: 28°   Wind: 6mph
Humidity: 100%   Direction: 210°SSW
Pressure: 29.73"   Gusts: NA
Location:  48.6879°N, 101.011°W
Report Text: KMIB 210228Z AUTO 21005KT 10SM SCT023 BKN028 OVC070 M02/M02 A2973 RMK AO2 CIG 028V036 BKN V SCT CIG 023 RWY11 $
Loading
Personal Weather Stations






























Interactive Weather Map New forecast layout! Learn more

10-Day Weather Forecast

Advertisements
Track Severe Weather on mobile